Time;durP1;ratioP1;P1;durP2;ratioP2;P2;SDS_P1;SDS_P2;PMS_P1;PMS_P2;Temp;Humidity;BMP_temperature;BMP_pressure;BME280_temperature;BME280_humidity;BME280_pressure;Samples;Min_cycle;Max_cycle;Signal;HPM_P1;HPM_P2
2022/03/14 00:00:50;;;;;;;;;3.00;3.00;;;;;10.74;63.66;101524.63;5035932;28;47477;-85
2022/03/14 00:03:16;;;;;;;;;2.67;2.00;;;;;10.72;63.80;101519.38;5115692;27;45468;-85
2022/03/14 00:05:42;;;;;;;;;1.00;1.00;;;;;11.06;63.22;101589.44;5141162;27;45435;-84
2022/03/14 00:08:08;;;;;;;;;2.00;2.00;;;;;10.54;63.87;101507.50;5141058;27;45322;-84
2022/03/14 00:10:35;;;;;;;;;1.00;1.00;;;;;10.41;63.26;101475.94;5117644;27;46462;-85
2022/03/14 00:13:01;;;;;;;;;1.00;1.00;;;;;11.08;63.17;101588.44;5036382;27;45260;-84
2022/03/14 00:15:33;;;;;;;;;1.00;1.00;;;;;11.11;63.25;101590.16;5035868;28;45435;-85
2022/03/14 00:18:00;;;;;;;;;5.00;2.00;;;;;10.82;63.18;101551.94;5036484;28;45277;-84
2022/03/14 00:20:26;;;;;;;;;2.00;1.00;;;;;11.09;62.94;101610.66;5035697;28;45392;-84
2022/03/14 00:22:52;;;;;;;;;2.67;2.00;;;;;10.80;63.21;101569.78;5035805;28;45290;-84
2022/03/14 00:25:17;;;;;;;;;1.67;1.67;;;;;10.61;62.75;101537.50;5036288;28;45373;-84
2022/03/14 00:27:42;;;;;;;;;2.00;2.00;;;;;10.80;62.90;101572.44;5036091;28;45594;-85
2022/03/14 00:30:10;;;;;;;;;2.00;2.00;;;;;11.10;63.02;101629.31;5035235;28;58405;-85
2022/03/14 00:32:36;;;;;;;;;1.00;1.00;;;;;11.12;62.60;101634.56;5035658;28;46118;-83
2022/03/14 00:35:03;;;;;;;;;2.00;1.00;;;;;11.06;62.92;101632.97;5014619;28;45263;-84
2022/03/14 00:37:28;;;;;;;;;1.00;1.00;;;;;11.11;62.52;101644.38;5016309;28;45518;-84
2022/03/14 00:39:53;;;;;;;;;1.00;1.00;;;;;10.56;62.52;101540.31;5014898;28;45571;-84
2022/03/14 00:42:22;;;;;;;;;2.00;2.00;;;;;11.04;62.76;101639.28;5015867;28;45352;-84
2022/03/14 00:44:49;;;;;;;;;1.00;1.00;;;;;11.12;62.30;101659.47;5015895;28;45458;-84
2022/03/14 00:47:16;;;;;;;;;2.00;2.00;;;;;11.15;62.53;101662.03;5016458;27;45457;-84
2022/03/14 00:49:41;;;;;;;;;2.33;1.00;;;;;10.90;62.67;101635.25;5015455;28;45389;-84
2022/03/14 00:52:07;;;;;;;;;1.33;0.67;;;;;10.89;62.34;101621.97;5015553;28;45394;-84
2022/03/14 00:54:32;;;;;;;;;1.67;1.00;;;;;10.74;62.07;101612.63;5047350;28;45335;-84
2022/03/14 00:56:58;;;;;;;;;3.33;0.67;;;;;10.82;62.08;101628.41;5056381;28;45365;-84
2022/03/14 00:59:24;;;;;;;;;1.00;1.00;;;;;11.21;62.61;101690.31;5041727;28;46011;-84
2022/03/14 01:01:51;;;;;;;;;2.00;2.00;;;;;11.17;62.33;101686.00;5053029;27;45449;-84
2022/03/14 01:04:16;;;;;;;;;1.00;1.00;;;;;11.24;62.06;101700.91;5062950;27;45407;-84
2022/03/14 01:06:41;;;;;;;;;2.67;1.00;;;;;10.89;62.30;101632.66;5035066;28;45397;-84
2022/03/14 01:09:07;;;;;;;;;2.00;0.67;;;;;10.92;61.81;101646.75;5035189;28;45557;-84
2022/03/14 01:11:33;;;;;;;;;1.00;1.00;;;;;11.34;62.37;101717.50;5035057;28;45329;-84
2022/03/14 01:13:58;;;;;;;;;0.00;0.00;;;;;11.36;62.13;101719.19;5035702;28;45453;-84
2022/03/14 01:16:24;;;;;;;;;1.00;1.00;;;;;11.09;61.63;101672.03;5035706;28;45449;-84
2022/03/14 01:18:49;;;;;;;;;1.67;1.67;;;;;11.23;61.71;101693.81;5035180;28;45771;-84
2022/03/14 01:21:14;;;;;;;;;2.33;1.00;;;;;11.39;61.52;101727.09;5035554;28;45337;-84
2022/03/14 01:23:40;;;;;;;;;1.67;1.67;;;;;11.28;61.51;101720.34;5030591;28;45361;-84
2022/03/14 01:26:08;;;;;;;;;1.33;1.33;;;;;11.00;61.79;101681.16;5015493;28;45469;-84
2022/03/14 01:28:34;;;;;;;;;2.00;1.00;;;;;11.01;61.75;101679.41;5015175;28;46284;-84
2022/03/14 01:30:59;;;;;;;;;2.00;0.67;;;;;11.26;61.22;101723.09;5013763;28;45400;-84
2022/03/14 01:33:24;;;;;;;;;4.00;1.67;;;;;11.40;61.52;101747.56;5022127;28;45586;-84
2022/03/14 01:35:49;;;;;;;;;0.33;0.33;;;;;11.20;61.07;101718.78;5035354;28;45576;-84
2022/03/14 01:38:15;;;;;;;;;2.00;1.00;;;;;11.44;61.79;101750.13;5034950;28;49653;-84
2022/03/14 01:40:40;;;;;;;;;2.67;2.67;;;;;11.10;61.53;101701.34;5034958;28;45324;-84
2022/03/14 01:43:06;;;;;;;;;1.00;1.00;;;;;11.22;61.53;101718.75;5035432;28;45257;-83
2022/03/14 01:45:31;;;;;;;;;1.33;1.33;;;;;11.47;61.42;101755.34;5035426;28;45308;-83
2022/03/14 01:47:56;;;;;;;;;3.00;1.00;;;;;11.24;61.29;101724.03;5035006;27;45576;-84
2022/03/14 01:50:22;;;;;;;;;3.00;2.00;;;;;11.14;61.30;101711.00;5017207;27;46819;-84
2022/03/14 01:52:48;;;;;;;;;3.00;1.00;;;;;10.94;61.15;101681.38;5033277;28;45256;-84
2022/03/14 01:55:16;;;;;;;;;0.00;0.00;;;;;11.43;61.37;101767.06;5035547;28;45331;-84
2022/03/14 01:57:42;;;;;;;;;2.67;1.33;;;;;11.33;61.25;101754.00;5034758;28;46313;-84
2022/03/14 02:00:11;;;;;;;;;1.00;1.00;;;;;11.43;61.18;101772.41;5034723;28;45396;-84
2022/03/14 02:02:36;;;;;;;;;3.33;2.00;;;;;11.42;61.14;101774.19;5017144;27;45286;-83
2022/03/14 02:05:02;;;;;;;;;1.00;1.00;;;;;11.10;61.01;101724.47;5035142;28;45367;-83
2022/03/14 02:07:28;;;;;;;;;2.00;2.00;;;;;11.05;61.22;101721.94;5034500;28;46343;-84
2022/03/14 02:09:53;;;;;;;;;1.00;1.00;;;;;11.37;61.26;101770.78;5034530;28;45581;-84
2022/03/14 02:12:18;;;;;;;;;2.00;1.00;;;;;11.35;61.37;101773.50;5034810;28;45360;-83
2022/03/14 02:14:44;;;;;;;;;1.00;1.00;;;;;11.23;61.18;101757.84;5042149;28;45639;-84
2022/03/14 02:17:12;;;;;;;;;1.33;1.00;;;;;11.31;61.21;101781.66;5054564;28;46382;-83
2022/03/14 02:19:37;;;;;;;;;1.00;1.00;;;;;11.19;61.27;101761.53;5054547;28;45440;-83
2022/03/14 02:22:05;;;;;;;;;2.00;1.00;;;;;10.97;61.33;101738.16;5054629;28;45246;-84
2022/03/14 02:24:31;;;;;;;;;2.67;1.00;;;;;11.25;61.54;101785.38;5054927;28;45617;-83
2022/03/14 02:26:56;;;;;;;;;1.00;1.00;;;;;11.14;61.28;101769.69;5054321;28;46188;-83
2022/03/14 02:29:23;;;;;;;;;0.00;0.00;;;;;10.72;61.54;101699.78;5054283;28;45178;-84
2022/03/14 02:31:50;;;;;;;;;1.00;1.00;;;;;11.15;62.03;101790.13;5054461;28;45164;-84
2022/03/14 02:34:16;;;;;;;;;3.00;2.00;;;;;11.12;62.15;101789.31;5054883;28;45478;-83
2022/03/14 02:36:41;;;;;;;;;3.00;2.00;;;;;10.75;62.04;101734.38;5054138;28;46097;-84
2022/03/14 02:39:07;;;;;;;;;1.00;1.00;;;;;11.07;62.11;101797.44;5054321;28;45479;-83
2022/03/14 02:41:32;;;;;;;;;2.00;2.00;;;;;11.01;61.96;101796.78;5027401;28;45310;-83
2022/03/14 02:43:59;;;;;;;;;3.33;2.00;;;;;10.82;61.98;101783.09;5013310;28;45550;-84
2022/03/14 02:46:25;;;;;;;;;0.67;0.67;;;;;10.98;62.24;101808.41;5014026;28;45511;-83
2022/03/14 02:48:50;;;;;;;;;4.00;3.00;;;;;10.99;61.98;101813.69;5033977;28;45486;-83
2022/03/14 02:51:16;;;;;;;;;3.00;1.00;;;;;10.93;62.42;101811.22;5034143;28;45383;-83
2022/03/14 02:53:41;;;;;;;;;2.00;1.67;;;;;10.90;61.97;101815.75;5034239;28;45458;-83
2022/03/14 02:56:06;;;;;;;;;2.33;1.00;;;;;10.84;62.60;101826.56;5033577;28;50476;-83
2022/03/14 02:58:32;;;;;;;;;2.00;1.67;;;;;10.82;62.65;101825.75;5033796;28;45370;-83
2022/03/14 03:01:00;;;;;;;;;2.00;2.00;;;;;10.73;62.93;101817.06;5034059;27;45414;-84
2022/03/14 03:03:26;;;;;;;;;3.67;2.00;;;;;10.59;62.68;101797.91;5034920;27;45341;-83
2022/03/14 03:05:52;;;;;;;;;3.00;2.00;;;;;10.35;62.66;101765.66;5036975;28;46183;-83
2022/03/14 03:08:18;;;;;;;;;2.00;1.00;;;;;10.52;62.41;101799.00;5036303;28;45334;-84
2022/03/14 03:10:44;;;;;;;;;1.67;1.33;;;;;10.82;62.67;101855.97;5037067;28;45487;-84
2022/03/14 03:13:12;;;;;;;;;2.00;2.00;;;;;10.81;62.75;101856.88;5037007;28;45848;-84
2022/03/14 03:15:38;;;;;;;;;4.00;3.00;;;;;10.76;63.05;101856.97;5021824;28;46388;-83
2022/03/14 03:18:05;;;;;;;;;2.00;2.00;;;;;10.63;62.72;101838.69;5016504;28;45184;-84
2022/03/14 03:20:30;;;;;;;;;4.33;2.00;;;;;10.54;62.79;101826.50;5037060;28;45441;-83
2022/03/14 03:22:55;;;;;;;;;2.00;2.00;;;;;10.46;62.75;101825.81;5037157;28;45524;-83
2022/03/14 03:25:21;;;;;;;;;2.00;2.00;;;;;10.67;63.20;101864.34;5036605;28;45481;-83
2022/03/14 03:27:46;;;;;;;;;3.33;3.00;;;;;10.75;63.06;101887.25;5036818;28;45518;-84
2022/03/14 03:30:12;;;;;;;;;1.33;1.00;;;;;10.61;63.22;101870.72;5036573;28;45491;-84
2022/03/14 03:32:37;;;;;;;;;4.00;2.67;;;;;10.60;63.21;101876.97;5037121;28;45506;-84
2022/03/14 03:35:03;;;;;;;;;2.00;1.00;;;;;10.71;63.18;101903.38;5036592;28;45632;-83
2022/03/14 03:37:29;;;;;;;;;1.00;1.00;;;;;10.54;63.04;101888.66;5036583;28;45398;-84
2022/03/14 03:39:54;;;;;;;;;2.00;2.00;;;;;10.39;63.28;101867.72;5036809;28;45349;-84
2022/03/14 03:42:20;;;;;;;;;3.67;2.00;;;;;10.21;63.36;101853.03;5036755;28;45519;-83
2022/03/14 03:44:45;;;;;;;;;2.00;2.00;;;;;10.16;63.59;101852.28;5036555;28;45394;-83
2022/03/14 03:47:10;;;;;;;;;4.00;2.00;;;;;10.40;63.23;101903.25;5036492;28;45412;-83
2022/03/14 03:49:38;;;;;;;;;4.00;1.00;;;;;10.57;63.51;101936.56;5036652;28;45457;-84
2022/03/14 03:52:04;;;;;;;;;4.00;1.67;;;;;10.14;63.70;101870.97;5036823;28;45461;-83
2022/03/14 03:54:29;;;;;;;;;1.00;1.00;;;;;10.30;63.46;101891.94;5036136;28;46091;-83
2022/03/14 03:56:54;;;;;;;;;2.00;2.00;;;;;10.51;63.77;101934.06;5036583;28;45350;-83
2022/03/14 03:59:21;;;;;;;;;2.00;2.00;;;;;10.42;63.56;101930.72;5036386;28;45892;-84
2022/03/14 04:01:47;;;;;;;;;3.00;1.67;;;;;10.50;63.56;101947.44;5036711;28;45514;-83
2022/03/14 04:04:12;;;;;;;;;3.33;2.00;;;;;10.50;63.67;101961.63;5018047;28;47508;-84
2022/03/14 04:06:41;;;;;;;;;2.00;1.00;;;;;10.50;63.85;101964.28;5036194;28;45427;-83
2022/03/14 04:09:07;;;;;;;;;2.00;2.00;;;;;10.50;63.53;101964.28;5036117;28;45338;-83
2022/03/14 04:11:33;;;;;;;;;3.33;1.00;;;;;10.19;63.55;101910.81;5036282;28;45320;-83
2022/03/14 04:13:59;;;;;;;;;1.00;1.00;;;;;10.49;63.66;101964.34;5036276;28;46671;-83
2022/03/14 04:16:26;;;;;;;;;3.00;1.67;;;;;10.28;63.58;101926.63;5034677;28;45326;-83
2022/03/14 04:18:52;;;;;;;;;1.00;1.00;;;;;10.19;63.70;101921.47;5036329;28;45430;-83
2022/03/14 04:21:17;;;;;;;;;1.00;1.00;;;;;10.19;63.61;101925.94;5036379;28;45567;-83
2022/03/14 04:23:43;;;;;;;;;2.00;2.00;;;;;10.18;63.49;101932.16;5036074;28;46407;-84
2022/03/14 04:26:09;;;;;;;;;1.00;1.00;;;;;10.45;63.55;101982.19;5035750;28;49153;-83
2022/03/14 04:28:36;;;;;;;;;2.67;2.00;;;;;10.19;63.32;101947.25;5036044;28;45355;-83
2022/03/14 04:31:05;;;;;;;;;4.00;2.00;;;;;10.45;63.88;101992.84;5052123;28;45350;-83
2022/03/14 04:33:31;;;;;;;;;1.33;1.00;;;;;10.19;63.51;101955.25;5055808;28;45432;-83
2022/03/14 04:35:57;;;;;;;;;4.67;1.67;;;;;10.44;63.64;101995.53;5056008;28;45293;-83
2022/03/14 04:38:24;;;;;;;;;2.33;2.33;;;;;10.44;63.63;102000.88;5055772;28;45323;-83
2022/03/14 04:40:49;;;;;;;;;2.00;2.00;;;;;10.24;63.31;101987.97;5056379;28;45376;-83
2022/03/14 04:43:15;;;;;;;;;3.67;1.33;;;;;9.90;63.11;101936.34;5055769;28;45560;-83
2022/03/14 04:45:40;;;;;;;;;4.00;3.00;;;;;10.30;63.25;102007.41;5055986;28;45325;-83
2022/03/14 04:48:07;;;;;;;;;2.67;2.67;;;;;10.02;63.25;101966.25;5056123;28;45460;-83
2022/03/14 04:50:35;;;;;;;;;3.67;1.00;;;;;10.32;62.98;102023.34;5056128;28;45245;-84
2022/03/14 04:53:01;;;;;;;;;1.67;1.67;;;;;10.34;63.34;102024.19;5055890;28;46018;-84
2022/03/14 04:55:26;;;;;;;;;2.67;2.67;;;;;10.10;63.31;101999.81;5055330;28;45380;-83
2022/03/14 04:57:52;;;;;;;;;4.00;2.00;;;;;9.86;62.68;101963.06;5055403;28;45329;-83
2022/03/14 05:00:17;;;;;;;;;3.00;2.00;;;;;9.90;63.14;101978.03;5055714;28;45558;-83
2022/03/14 05:02:43;;;;;;;;;2.00;2.00;;;;;10.17;63.01;102023.66;5044966;28;45858;-83
2022/03/14 05:05:12;;;;;;;;;7.67;2.67;;;;;10.00;62.88;101998.25;5035613;28;45396;-83
2022/03/14 05:07:41;;;;;;;;;4.00;2.00;;;;;10.23;62.80;102044.81;5035363;28;45308;-83
2022/03/14 05:10:07;;;;;;;;;2.00;2.00;;;;;10.15;63.30;102039.66;5035899;28;45288;-83
2022/03/14 05:12:34;;;;;;;;;4.00;2.67;;;;;9.82;63.08;101986.19;5034953;28;45950;-83
2022/03/14 05:15:00;;;;;;;;;5.00;3.00;;;;;9.97;63.02;102030.25;5017562;28;46088;-83
2022/03/14 05:17:26;;;;;;;;;5.33;4.00;;;;;9.98;63.16;102044.47;5035148;28;45568;-83
2022/03/14 05:19:51;;;;;;;;;2.00;2.00;;;;;9.91;62.84;102046.38;5035976;28;45355;-83
2022/03/14 05:22:18;;;;;;;;;2.67;2.67;;;;;10.04;62.74;102070.97;5035192;28;46328;-84
2022/03/14 05:24:44;;;;;;;;;2.67;2.67;;;;;9.79;63.18;102035.97;5035324;28;45493;-83
2022/03/14 05:27:10;;;;;;;;;4.33;3.33;;;;;9.93;63.26;102063.22;5035057;28;45241;-83
2022/03/14 05:29:35;;;;;;;;;3.00;3.00;;;;;10.01;62.90;102087.91;5035471;27;45232;-83
2022/03/14 05:32:01;;;;;;;;;3.33;2.33;;;;;9.92;62.92;102070.31;5035231;28;45315;-83
2022/03/14 05:34:27;;;;;;;;;4.67;3.00;;;;;9.99;62.80;102087.03;5034839;28;45625;-83
2022/03/14 05:36:52;;;;;;;;;3.00;2.00;;;;;9.99;63.03;102083.50;5035498;28;45356;-83
2022/03/14 05:39:17;;;;;;;;;2.00;2.00;;;;;9.92;62.94;102069.44;5035422;28;45433;-84
2022/03/14 05:41:42;;;;;;;;;2.67;2.67;;;;;9.64;63.00;102024.69;5035041;28;45584;-83
2022/03/14 05:44:09;;;;;;;;;2.33;2.00;;;;;9.90;63.21;102072.16;5034858;28;45223;-83
2022/03/14 05:46:34;;;;;;;;;3.00;1.67;;;;;9.94;62.98;102087.13;5034945;28;45341;-83
2022/03/14 05:49:00;;;;;;;;;5.33;2.00;;;;;9.50;62.62;102013.44;5035021;28;45446;-83
2022/03/14 05:51:25;;;;;;;;;4.00;2.67;;;;;9.45;62.64;102015.31;5034446;28;45254;-83
2022/03/14 05:53:50;;;;;;;;;3.00;3.00;;;;;9.87;62.92;102090.81;5035011;28;45265;-83
2022/03/14 05:56:16;;;;;;;;;2.00;2.00;;;;;9.77;63.39;102072.41;5034967;28;45516;-84
2022/03/14 05:58:41;;;;;;;;;2.00;2.00;;;;;9.69;63.03;102068.09;5034872;28;45618;-83
2022/03/14 06:01:06;;;;;;;;;3.67;3.00;;;;;9.65;62.80;102061.06;5042596;28;46242;-84
2022/03/14 06:03:32;;;;;;;;;4.00;3.00;;;;;9.90;63.46;102122.75;5035486;28;45493;-83
2022/03/14 06:05:57;;;;;;;;;2.33;1.33;;;;;9.57;63.27;102073.63;5034252;28;45607;-83
2022/03/14 06:08:23;;;;;;;;;3.67;2.00;;;;;9.87;63.26;102122.78;5016520;28;45481;-84
2022/03/14 06:10:48;;;;;;;;;3.67;3.67;;;;;9.47;63.21;102056.09;5034159;28;46213;-84
2022/03/14 06:13:14;;;;;;;;;3.00;3.00;;;;;9.77;62.93;102112.34;5034879;28;45486;-84
2022/03/14 06:15:40;;;;;;;;;4.00;3.00;;;;;9.64;63.12;102088.59;5034424;28;45528;-84
2022/03/14 06:18:06;;;;;;;;;4.00;2.00;;;;;9.15;63.56;102022.06;5034985;28;45183;-84
2022/03/14 06:21:25;;;;;;;;;4.00;3.33;;;;;9.11;64.03;102047.84;5018124;27;45233;-85
2022/03/14 06:23:51;;;;;;;;;3.00;3.00;;;;;8.92;63.85;102010.06;4998066;27;45503;-83
2022/03/14 06:26:17;;;;;;;;;5.00;3.67;;;;;9.34;63.62;102065.19;4994334;27;45477;-84
2022/03/14 06:28:42;;;;;;;;;3.67;3.67;;;;;9.81;63.41;102146.88;5027367;27;45419;-81
2022/03/14 06:31:09;;;;;;;;;4.00;4.00;;;;;9.00;63.55;102016.09;4992233;27;48363;-87
2022/03/14 06:33:35;;;;;;;;;6.33;5.67;;;;;9.44;63.23;102093.41;4988918;27;45570;-86
2022/03/14 06:36:01;;;;;;;;;5.33;5.33;;;;;9.60;63.71;102125.94;4991400;27;45637;-84
2022/03/14 06:38:26;;;;;;;;;7.00;5.33;;;;;9.72;63.21;102157.69;4990041;27;45480;-82
2022/03/14 06:40:54;;;;;;;;;6.00;6.00;;;;;9.81;63.47;102181.50;4987981;28;46112;-82
2022/03/14 06:43:19;;;;;;;;;5.00;5.00;;;;;9.80;63.63;102184.19;4991505;28;45448;-83
2022/03/14 06:45:45;;;;;;;;;8.67;7.00;;;;;9.82;63.81;102195.69;4988172;28;45717;-84
2022/03/14 06:48:11;;;;;;;;;4.00;4.00;;;;;9.75;64.18;102186.91;4987243;28;45305;-80
2022/03/14 06:50:36;;;;;;;;;5.00;5.00;;;;;9.84;63.98;102208.06;5020515;27;47864;-81
2022/03/14 06:53:03;;;;;;;;;75.00;61.25;;;;;9.65;63.81;102175.53;5002046;27;45657;-80
2022/03/14 06:55:28;;;;;;;;;7.33;7.00;;;;;9.71;64.00;102186.06;5022225;27;45557;-79
2022/03/14 06:57:54;;;;;;;;;8.67;7.33;;;;;9.86;64.16;102197.41;5006206;27;45360;-79
2022/03/14 07:00:20;;;;;;;;;8.00;6.00;;;;;9.73;63.85;102165.63;5028151;27;45930;-79
2022/03/14 07:02:45;;;;;;;;;6.67;6.00;;;;;9.59;64.00;102140.16;4984447;27;45486;-79
2022/03/14 07:05:13;;;;;;;;;8.67;6.33;;;;;9.94;64.06;102184.81;4979459;28;45756;-80
2022/03/14 07:07:40;;;;;;;;;5.00;4.67;;;;;10.12;63.63;102218.25;4981892;28;45545;-80
2022/03/14 07:10:06;;;;;;;;;4.33;3.33;;;;;9.96;63.71;102193.66;4980993;28;45900;-81
2022/03/14 07:12:39;;;;;;;;;6.33;6.33;;;;;10.18;64.04;102242.09;4987530;28;45418;-82
2022/03/14 07:15:05;;;;;;;;;11.33;10.00;;;;;10.19;63.96;102235.88;4989826;28;45421;-82
2022/03/14 07:17:30;;;;;;;;;8.00;8.00;;;;;10.14;63.89;102229.75;4997676;28;45493;-83
2022/03/14 07:19:55;;;;;;;;;9.00;6.67;;;;;10.14;63.32;102224.41;5062068;27;46219;-81
2022/03/14 07:22:21;;;;;;;;;10.67;9.33;;;;;10.40;63.05;102250.63;5029722;28;45318;-84
2022/03/14 07:24:47;;;;;;;;;8.67;7.00;;;;;10.29;62.96;102224.16;5030069;28;45325;-85
2022/03/14 07:27:14;;;;;;;;;7.00;7.00;;;;;10.46;62.70;102241.63;5025428;28;45491;-85
2022/03/14 07:29:39;;;;;;;;;7.67;7.00;;;;;10.61;62.56;102260.00;5009680;27;45412;-85
2022/03/14 07:32:05;;;;;;;;;10.00;6.67;;;;;10.69;62.17;102262.50;4991463;28;45450;-86
2022/03/14 07:34:31;;;;;;;;;5.67;5.67;;;;;10.76;62.14;102264.13;4977248;28;45333;-85
2022/03/14 07:36:57;;;;;;;;;8.33;7.33;;;;;10.75;62.24;102265.06;4986866;28;45480;-85
2022/03/14 07:39:22;;;;;;;;;6.00;5.00;;;;;10.86;61.51;102280.81;4996255;27;46084;-85
2022/03/14 07:41:47;;;;;;;;;6.00;5.00;;;;;10.78;61.37;102273.84;4996535;27;45246;-83
2022/03/14 07:44:13;;;;;;;;;5.67;5.00;;;;;10.89;61.12;102286.13;4992153;27;52340;-83
2022/03/14 07:46:38;;;;;;;;;7.00;7.00;;;;;10.86;61.37;102287.03;4977319;28;45248;-84
2022/03/14 07:49:03;;;;;;;;;5.00;5.00;;;;;10.71;61.34;102264.22;4976409;28;45993;-83
2022/03/14 07:51:29;;;;;;;;;9.67;8.33;;;;;10.72;61.08;102275.75;4976436;28;45349;-83
2022/03/14 07:53:54;;;;;;;;;5.00;5.00;;;;;10.80;60.61;102299.63;5083759;27;45282;-83
2022/03/14 07:56:20;;;;;;;;;8.67;5.67;;;;;10.66;60.59;102273.22;5052750;27;45391;-82
2022/03/14 07:58:45;;;;;;;;;10.67;7.67;;;;;10.90;60.70;102311.88;4995671;27;46583;-82
2022/03/14 08:01:11;;;;;;;;;5.67;5.67;;;;;10.74;61.12;102282.81;5001832;27;46043;-82
2022/03/14 08:03:36;;;;;;;;;6.67;6.00;;;;;10.69;60.63;102262.50;5004751;27;45424;-82
2022/03/14 08:06:02;;;;;;;;;6.00;4.67;;;;;11.09;61.00;102315.03;5065351;27;45581;-82
2022/03/14 08:08:28;;;;;;;;;4.00;4.00;;;;;11.07;60.38;102303.53;5099509;27;46047;-82
2022/03/14 08:10:54;;;;;;;;;9.33;6.67;;;;;11.23;60.11;102315.63;5001484;27;45583;-83
2022/03/14 08:13:20;;;;;;;;;8.33;8.33;;;;;11.26;60.37;102315.59;4996094;28;45373;-83
2022/03/14 08:15:46;;;;;;;;;4.00;4.00;;;;;11.24;60.30;102309.41;5005718;28;45535;-82
2022/03/14 08:18:13;;;;;;;;;5.00;5.00;;;;;11.46;60.12;102335.63;5015503;28;45438;-82
2022/03/14 08:20:39;;;;;;;;;7.33;4.67;;;;;11.57;60.80;102342.50;5067231;27;45401;-82
2022/03/14 08:23:05;;;;;;;;;10.33;5.00;;;;;11.77;60.13;102342.00;4998005;27;45315;-83
2022/03/14 08:25:32;;;;;;;;;8.00;6.00;;;;;11.90;60.04;102325.75;5006587;28;45573;-83
2022/03/14 08:27:57;;;;;;;;;27.67;23.67;;;;;12.09;58.81;102323.53;4995556;28;45517;-83
2022/03/14 08:30:23;;;;;;;;;8.00;8.00;;;;;12.00;58.71;102281.84;4995613;27;45547;-83
2022/03/14 08:32:50;;;;;;;;;12.33;8.33;;;;;12.41;58.40;102333.41;4997302;27;45368;-83
2022/03/14 08:35:17;;;;;;;;;5.00;5.00;;;;;12.39;57.87;102319.19;5015358;28;45484;-83
2022/03/14 08:37:43;;;;;;;;;33.33;26.67;;;;;12.61;57.42;102347.09;5015503;28;45958;-83
2022/03/14 08:40:13;;;;;;;;;9.67;5.00;;;;;12.51;57.49;102328.69;5066995;27;45846;-83
2022/03/14 08:42:40;;;;;;;;;5.33;5.33;;;;;12.76;57.50;102359.22;5097419;27;45525;-82
2022/03/14 08:45:07;;;;;;;;;9.33;5.00;;;;;12.87;57.36;102361.59;5099380;27;45410;-83
2022/03/14 08:47:34;;;;;;;;;6.00;6.00;;;;;12.95;57.19;102369.44;5045258;27;45403;-83
2022/03/14 08:50:02;;;;;;;;;7.67;4.67;;;;;12.99;57.18;102358.56;4976101;28;45312;-83
2022/03/14 08:52:27;;;;;;;;;6.33;5.67;;;;;13.21;56.03;102372.25;4976160;28;45482;-83
2022/03/14 08:54:53;;;;;;;;;9.00;8.00;;;;;13.22;56.17;102360.59;4976360;28;45441;-83
2022/03/14 08:57:18;;;;;;;;;12.00;11.67;;;;;13.32;55.96;102369.25;4975858;28;45964;-83
2022/03/14 08:59:44;;;;;;;;;7.00;4.67;;;;;13.12;55.83;102329.66;4974424;28;45914;-83
2022/03/14 09:02:10;;;;;;;;;5.33;3.00;;;;;13.56;55.99;102375.72;4998507;28;45756;-83
2022/03/14 09:04:35;;;;;;;;;10.00;7.67;;;;;13.66;54.78;102377.19;5015735;28;45506;-83
2022/03/14 09:07:01;;;;;;;;;16.67;16.00;;;;;13.58;55.32;102344.41;5000244;27;45970;-83
2022/03/14 09:09:26;;;;;;;;;7.33;7.33;;;;;13.90;54.64;102374.66;4985178;28;45413;-83
2022/03/14 09:11:51;;;;;;;;;20.00;15.00;;;;;14.08;54.38;102370.53;4975666;28;49748;-83
2022/03/14 09:14:18;;;;;;;;;4.67;3.00;;;;;14.26;53.43;102375.31;4976055;28;45415;-83
2022/03/14 09:16:44;;;;;;;;;5.00;2.67;;;;;14.44;53.14;102362.19;4984626;28;45494;-83
2022/03/14 09:19:09;;;;;;;;;13.33;13.33;;;;;14.91;52.94;102373.09;4993600;28;45594;-83
2022/03/14 09:21:35;;;;;;;;;7.33;5.33;;;;;15.29;51.97;102370.81;4995539;28;45419;-83
2022/03/14 09:24:00;;;;;;;;;5.33;4.33;;;;;15.70;51.17;102355.84;4995660;28;45689;-83
2022/03/14 09:26:26;;;;;;;;;5.33;4.67;;;;;16.36;49.86;102368.41;4995062;27;45868;-83
2022/03/14 09:28:51;;;;;;;;;5.00;2.50;;;;;17.08;47.58;102320.38;4995574;28;45537;-83
2022/03/14 09:31:17;;;;;;;;;6.33;4.00;;;;;18.40;45.10;102372.50;4992042;27;45389;-83
2022/03/14 09:33:44;;;;;;;;;4.33;3.00;;;;;18.44;44.71;102328.22;4976199;28;45531;-83
2022/03/14 09:36:10;;;;;;;;;6.33;5.00;;;;;18.76;43.79;102361.69;4975242;28;45447;-83
2022/03/14 09:38:36;;;;;;;;;5.00;4.00;;;;;19.22;43.03;102354.78;4975521;28;45615;-83
2022/03/14 09:41:03;;;;;;;;;6.33;5.00;;;;;20.37;42.06;102368.09;4975565;28;45353;-84
2022/03/14 09:43:37;;;;;;;;;8.33;6.00;;;;;21.50;39.70;102379.28;4975706;28;45423;-84
2022/03/14 09:46:06;;;;;;;;;8.00;6.33;;;;;22.65;38.16;102373.50;4975251;28;45325;-84
2022/03/14 09:48:36;;;;;;;;;3.33;3.33;;;;;23.80;36.64;102369.91;4975318;28;45455;-84
2022/03/14 09:51:03;;;;;;;;;7.33;3.00;;;;;24.76;34.40;102361.72;4975460;28;45761;-84
2022/03/14 09:53:29;;;;;;;;;7.33;6.00;;;;;25.73;32.51;102336.72;4975356;28;45366;-84
2022/03/14 09:55:55;;;;;;;;;3.33;3.00;;;;;26.76;31.00;102350.75;4974908;28;47638;-84
2022/03/14 09:58:21;;;;;;;;;5.33;4.00;;;;;27.37;29.55;102314.41;4974682;28;45376;-85
2022/03/14 10:00:48;;;;;;;;;4.00;3.67;;;;;28.60;28.92;102364.22;5081173;27;45373;-85
2022/03/14 10:03:16;;;;;;;;;5.67;4.33;;;;;29.54;27.70;102363.38;5021716;27;45388;-84
2022/03/14 10:05:43;;;;;;;;;4.00;4.00;;;;;30.58;26.31;102356.59;4994663;27;45497;-86
2022/03/14 10:08:10;;;;;;;;;8.00;7.00;;;;;31.58;24.36;102357.09;4994614;28;45413;-83
2022/03/14 10:10:37;;;;;;;;;4.33;4.33;;;;;32.57;23.61;102348.88;4993538;28;45384;-83
2022/03/14 10:13:05;;;;;;;;;6.67;4.00;;;;;33.52;22.74;102361.09;4995338;28;45358;-83
2022/03/14 10:15:32;;;;;;;;;8.00;7.00;;;;;34.30;22.00;102323.31;4994348;27;45447;-83
2022/03/14 10:17:58;;;;;;;;;8.00;5.67;;;;;35.37;20.83;102339.72;4994796;28;45235;-83
2022/03/14 10:20:25;;;;;;;;;7.67;4.00;;;;;36.26;20.01;102356.19;4994227;27;45408;-83
2022/03/14 10:22:51;;;;;;;;;7.00;7.00;;;;;36.89;19.22;102345.19;4993771;28;45504;-83
2022/03/14 10:25:19;;;;;;;;;7.00;6.67;;;;;37.56;18.53;102327.00;4992327;28;46138;-84
2022/03/14 10:27:49;;;;;;;;;8.33;5.00;;;;;38.33;17.75;102374.94;4994680;28;45399;-83
2022/03/14 10:30:28;;;;;;;;;4.33;3.67;;;;;39.00;17.70;102373.06;4994514;28;45389;-83
2022/03/14 10:33:13;;;;;;;;;3.00;3.00;;;;;39.40;16.97;102342.28;4993523;27;45508;-84
2022/03/14 10:35:41;;;;;;;;;3.33;3.33;;;;;39.89;15.88;102358.38;4994402;27;46148;-84
2022/03/14 10:38:09;;;;;;;;;4.67;4.33;;;;;40.23;15.97;102378.59;4993201;27;45432;-84
2022/03/14 10:40:36;;;;;;;;;2.67;2.67;;;;;40.29;15.48;102365.66;4994042;27;45445;-84
2022/03/14 10:43:06;;;;;;;;;1.33;1.33;;;;;40.47;15.41;102368.53;4994818;28;45504;-84
2022/03/14 10:45:31;;;;;;;;;2.67;2.67;;;;;40.70;15.24;102358.69;4982798;27;45449;-84
2022/03/14 10:47:58;;;;;;;;;4.00;4.00;;;;;41.02;15.23;102358.56;4974613;28;45349;-83
2022/03/14 10:50:29;;;;;;;;;1.33;1.33;;;;;41.02;14.99;102316.63;4979362;28;45257;-84
2022/03/14 10:53:07;;;;;;;;;1.67;1.67;;;;;41.10;14.62;102344.28;4994659;28;45450;-84
2022/03/14 10:55:45;;;;;;;;;3.33;3.33;;;;;41.22;14.24;102361.19;4993636;27;45659;-83
2022/03/14 10:58:18;;;;;;;;;2.33;2.33;;;;;40.88;14.47;102371.84;4994173;28;45243;-84
2022/03/14 11:00:49;;;;;;;;;5.33;5.33;;;;;40.56;13.88;102376.66;4994215;27;45805;-83
2022/03/14 11:03:24;;;;;;;;;8.00;3.33;;;;;39.88;14.42;102356.69;4979622;28;45318;-84
2022/03/14 11:05:50;;;;;;;;;5.00;4.67;;;;;39.36;15.21;102383.75;4974589;28;46021;-84
2022/03/14 11:08:32;;;;;;;;;3.00;3.00;;;;;38.64;16.34;102389.16;4980932;28;45444;-83
2022/03/14 11:11:00;;;;;;;;;5.33;3.67;;;;;37.62;16.39;102337.28;4995636;28;45456;-84
2022/03/14 11:13:26;;;;;;;;;3.67;3.67;;;;;37.18;16.56;102385.81;4995700;27;45462;-84
2022/03/14 11:15:51;;;;;;;;;3.33;3.33;;;;;35.53;18.03;102349.75;4977379;28;45347;-84
2022/03/14 11:18:18;;;;;;;;;3.67;2.33;;;;;35.11;18.58;102363.25;4977063;28;45504;-84
2022/03/14 11:20:44;;;;;;;;;5.00;3.67;;;;;34.96;18.12;102379.84;4977191;28;45361;-84
2022/03/14 11:23:10;;;;;;;;;4.33;3.00;;;;;34.43;18.53;102334.63;4997312;28;45357;-84